sensor_id;sensor_type;location;lat;lon;timestamp;P1;durP1;ratioP1;P2;durP2;ratioP2
45760;SDS011;31471;51.040;14.414;2022-10-31T00:00:19;23.70;;;11.75;;
45760;SDS011;31471;51.040;14.414;2022-10-31T00:02:45;21.38;;;11.68;;
45760;SDS011;31471;51.040;14.414;2022-10-31T00:05:10;26.13;;;12.10;;
45760;SDS011;31471;51.040;14.414;2022-10-31T00:07:36;21.35;;;11.98;;
45760;SDS011;31471;51.040;14.414;2022-10-31T00:10:02;21.33;;;12.27;;
45760;SDS011;31471;51.040;14.414;2022-10-31T00:12:27;21.00;;;12.27;;
45760;SDS011;31471;51.040;14.414;2022-10-31T00:14:53;20.65;;;12.68;;
45760;SDS011;31471;51.040;14.414;2022-10-31T00:17:19;22.20;;;10.77;;
45760;SDS011;31471;51.040;14.414;2022-10-31T00:19:44;19.75;;;12.00;;
45760;SDS011;31471;51.040;14.414;2022-10-31T00:22:10;20.70;;;10.77;;
45760;SDS011;31471;51.040;14.414;2022-10-31T00:24:35;21.42;;;10.73;;
45760;SDS011;31471;51.040;14.414;2022-10-31T00:27:01;24.05;;;11.23;;
45760;SDS011;31471;51.040;14.414;2022-10-31T00:29:26;24.80;;;12.50;;
45760;SDS011;31471;51.040;14.414;2022-10-31T00:31:52;22.85;;;11.27;;
45760;SDS011;31471;51.040;14.414;2022-10-31T00:34:18;22.83;;;12.05;;
45760;SDS011;31471;51.040;14.414;2022-10-31T00:36:43;22.77;;;14.18;;
45760;SDS011;31471;51.040;14.414;2022-10-31T00:39:12;24.13;;;12.18;;
45760;SDS011;31471;51.040;14.414;2022-10-31T00:41:37;29.92;;;12.73;;
45760;SDS011;31471;51.040;14.414;2022-10-31T00:44:08;25.70;;;13.60;;
45760;SDS011;31471;51.040;14.414;2022-10-31T00:46:34;21.13;;;11.88;;
45760;SDS011;31471;51.040;14.414;2022-10-31T00:48:59;32.88;;;15.25;;
45760;SDS011;31471;51.040;14.414;2022-10-31T00:51:25;35.33;;;18.90;;
45760;SDS011;31471;51.040;14.414;2022-10-31T00:53:51;42.22;;;20.25;;
45760;SDS011;31471;51.040;14.414;2022-10-31T00:56:16;35.08;;;18.52;;
45760;SDS011;31471;51.040;14.414;2022-10-31T00:58:42;32.20;;;18.38;;
45760;SDS011;31471;51.040;14.414;2022-10-31T01:01:07;31.77;;;17.17;;
45760;SDS011;31471;51.040;14.414;2022-10-31T01:03:34;33.35;;;16.75;;
45760;SDS011;31471;51.040;14.414;2022-10-31T01:06:03;38.03;;;17.70;;
45760;SDS011;31471;51.040;14.414;2022-10-31T01:08:32;31.35;;;18.63;;
45760;SDS011;31471;51.040;14.414;2022-10-31T01:13:53;31.90;;;16.92;;
45760;SDS011;31471;51.040;14.414;2022-10-31T01:16:21;31.05;;;15.57;;
45760;SDS011;31471;51.040;14.414;2022-10-31T01:18:49;28.75;;;15.40;;
45760;SDS011;31471;51.040;14.414;2022-10-31T01:23:42;28.20;;;14.77;;
45760;SDS011;31471;51.040;14.414;2022-10-31T01:26:16;29.30;;;14.43;;
45760;SDS011;31471;51.040;14.414;2022-10-31T01:28:47;24.00;;;13.80;;
45760;SDS011;31471;51.040;14.414;2022-10-31T01:31:19;22.45;;;13.55;;
45760;SDS011;31471;51.040;14.414;2022-10-31T01:33:47;21.05;;;11.90;;
45760;SDS011;31471;51.040;14.414;2022-10-31T01:36:35;26.70;;;14.00;;
45760;SDS011;31471;51.040;14.414;2022-10-31T01:39:10;29.30;;;16.25;;
45760;SDS011;31471;51.040;14.414;2022-10-31T01:41:39;28.80;;;16.50;;
45760;SDS011;31471;51.040;14.414;2022-10-31T01:46:49;26.63;;;16.83;;
45760;SDS011;31471;51.040;14.414;2022-10-31T01:49:33;29.95;;;16.48;;
45760;SDS011;31471;51.040;14.414;2022-10-31T01:54:44;26.52;;;15.38;;
45760;SDS011;31471;51.040;14.414;2022-10-31T01:57:15;28.75;;;15.13;;
45760;SDS011;31471;51.040;14.414;2022-10-31T01:59:44;22.75;;;12.95;;
45760;SDS011;31471;51.040;14.414;2022-10-31T02:02:15;20.75;;;11.73;;
45760;SDS011;31471;51.040;14.414;2022-10-31T02:04:42;23.88;;;11.85;;
45760;SDS011;31471;51.040;14.414;2022-10-31T02:07:10;22.48;;;10.98;;
45760;SDS011;31471;51.040;14.414;2022-10-31T02:09:38;19.85;;;10.20;;
45760;SDS011;31471;51.040;14.414;2022-10-31T02:12:05;19.92;;;10.10;;
45760;SDS011;31471;51.040;14.414;2022-10-31T02:14:33;17.23;;;10.15;;
45760;SDS011;31471;51.040;14.414;2022-10-31T02:17:02;20.33;;;10.10;;
45760;SDS011;31471;51.040;14.414;2022-10-31T02:19:40;19.52;;;10.85;;
45760;SDS011;31471;51.040;14.414;2022-10-31T02:31:05;21.67;;;11.27;;
45760;SDS011;31471;51.040;14.414;2022-10-31T02:33:51;22.00;;;10.93;;
45760;SDS011;31471;51.040;14.414;2022-10-31T02:36:23;22.60;;;12.35;;
45760;SDS011;31471;51.040;14.414;2022-10-31T02:39:11;25.05;;;11.98;;
45760;SDS011;31471;51.040;14.414;2022-10-31T02:44:50;18.75;;;10.27;;
45760;SDS011;31471;51.040;14.414;2022-10-31T02:47:23;21.02;;;10.55;;
45760;SDS011;31471;51.040;14.414;2022-10-31T02:49:54;17.98;;;10.05;;
45760;SDS011;31471;51.040;14.414;2022-10-31T02:52:40;21.20;;;10.57;;
45760;SDS011;31471;51.040;14.414;2022-10-31T02:55:09;20.52;;;10.00;;
45760;SDS011;31471;51.040;14.414;2022-10-31T02:57:37;19.63;;;9.88;;
45760;SDS011;31471;51.040;14.414;2022-10-31T03:00:05;19.83;;;11.10;;
45760;SDS011;31471;51.040;14.414;2022-10-31T03:10:58;16.08;;;9.25;;
45760;SDS011;31471;51.040;14.414;2022-10-31T03:13:41;18.65;;;9.68;;
45760;SDS011;31471;51.040;14.414;2022-10-31T03:16:14;17.55;;;9.52;;
45760;SDS011;31471;51.040;14.414;2022-10-31T03:18:50;18.30;;;9.85;;
45760;SDS011;31471;51.040;14.414;2022-10-31T03:21:22;16.75;;;9.88;;
45760;SDS011;31471;51.040;14.414;2022-10-31T03:23:54;18.73;;;10.00;;
45760;SDS011;31471;51.040;14.414;2022-10-31T03:26:22;18.20;;;9.95;;
45760;SDS011;31471;51.040;14.414;2022-10-31T03:28:53;18.27;;;9.95;;
45760;SDS011;31471;51.040;14.414;2022-10-31T03:31:23;15.73;;;9.77;;
45760;SDS011;31471;51.040;14.414;2022-10-31T03:33:54;16.95;;;9.30;;
45760;SDS011;31471;51.040;14.414;2022-10-31T03:36:23;15.98;;;10.32;;
45760;SDS011;31471;51.040;14.414;2022-10-31T03:38:50;19.50;;;10.38;;
45760;SDS011;31471;51.040;14.414;2022-10-31T03:41:21;18.13;;;9.60;;
45760;SDS011;31471;51.040;14.414;2022-10-31T03:43:54;18.77;;;9.65;;
45760;SDS011;31471;51.040;14.414;2022-10-31T03:46:23;16.58;;;10.38;;
45760;SDS011;31471;51.040;14.414;2022-10-31T03:48:49;21.80;;;10.00;;
45760;SDS011;31471;51.040;14.414;2022-10-31T03:51:18;20.98;;;9.35;;
45760;SDS011;31471;51.040;14.414;2022-10-31T03:53:52;18.88;;;10.00;;
45760;SDS011;31471;51.040;14.414;2022-10-31T03:56:39;16.73;;;10.82;;
45760;SDS011;31471;51.040;14.414;2022-10-31T03:59:18;22.10;;;9.57;;
45760;SDS011;31471;51.040;14.414;2022-10-31T04:01:52;18.70;;;9.27;;
45760;SDS011;31471;51.040;14.414;2022-10-31T04:04:21;16.58;;;9.55;;
45760;SDS011;31471;51.040;14.414;2022-10-31T04:06:48;17.45;;;9.90;;
45760;SDS011;31471;51.040;14.414;2022-10-31T04:09:16;21.55;;;10.70;;
45760;SDS011;31471;51.040;14.414;2022-10-31T04:11:45;17.67;;;9.15;;
45760;SDS011;31471;51.040;14.414;2022-10-31T04:14:37;17.15;;;8.95;;
45760;SDS011;31471;51.040;14.414;2022-10-31T04:17:07;22.05;;;10.00;;
45760;SDS011;31471;51.040;14.414;2022-10-31T04:19:39;19.35;;;9.70;;
45760;SDS011;31471;51.040;14.414;2022-10-31T04:22:04;17.08;;;9.68;;
45760;SDS011;31471;51.040;14.414;2022-10-31T04:24:30;22.95;;;10.90;;
45760;SDS011;31471;51.040;14.414;2022-10-31T04:26:57;16.77;;;9.85;;
45760;SDS011;31471;51.040;14.414;2022-10-31T04:29:23;19.35;;;10.88;;
45760;SDS011;31471;51.040;14.414;2022-10-31T04:31:49;14.68;;;9.23;;
45760;SDS011;31471;51.040;14.414;2022-10-31T04:34:15;20.52;;;10.65;;
45760;SDS011;31471;51.040;14.414;2022-10-31T04:36:42;15.68;;;9.65;;
45760;SDS011;31471;51.040;14.414;2022-10-31T04:39:07;14.98;;;9.30;;
45760;SDS011;31471;51.040;14.414;2022-10-31T04:41:45;22.75;;;9.98;;
45760;SDS011;31471;51.040;14.414;2022-10-31T04:44:14;16.02;;;9.25;;
45760;SDS011;31471;51.040;14.414;2022-10-31T04:46:40;18.98;;;9.18;;
45760;SDS011;31471;51.040;14.414;2022-10-31T04:49:06;18.88;;;8.20;;
45760;SDS011;31471;51.040;14.414;2022-10-31T04:51:33;16.08;;;9.20;;
45760;SDS011;31471;51.040;14.414;2022-10-31T04:53:59;14.38;;;8.05;;
45760;SDS011;31471;51.040;14.414;2022-10-31T04:56:57;17.60;;;8.77;;
45760;SDS011;31471;51.040;14.414;2022-10-31T04:59:22;15.20;;;8.75;;
45760;SDS011;31471;51.040;14.414;2022-10-31T05:01:51;14.93;;;8.05;;
45760;SDS011;31471;51.040;14.414;2022-10-31T05:04:23;15.65;;;7.53;;
45760;SDS011;31471;51.040;14.414;2022-10-31T05:06:48;19.20;;;9.13;;
45760;SDS011;31471;51.040;14.414;2022-10-31T05:09:14;18.60;;;9.23;;
45760;SDS011;31471;51.040;14.414;2022-10-31T05:11:40;23.85;;;11.48;;
45760;SDS011;31471;51.040;14.414;2022-10-31T05:14:22;18.58;;;9.90;;
45760;SDS011;31471;51.040;14.414;2022-10-31T05:17:08;15.80;;;9.40;;
45760;SDS011;31471;51.040;14.414;2022-10-31T05:20:00;19.83;;;9.65;;
45760;SDS011;31471;51.040;14.414;2022-10-31T05:23:04;19.73;;;9.88;;
45760;SDS011;31471;51.040;14.414;2022-10-31T05:25:29;22.65;;;10.88;;
45760;SDS011;31471;51.040;14.414;2022-10-31T05:27:55;19.50;;;10.68;;
45760;SDS011;31471;51.040;14.414;2022-10-31T05:30:22;21.10;;;11.15;;
45760;SDS011;31471;51.040;14.414;2022-10-31T05:32:51;22.80;;;10.60;;
45760;SDS011;31471;51.040;14.414;2022-10-31T05:35:55;17.70;;;8.90;;
45760;SDS011;31471;51.040;14.414;2022-10-31T05:38:31;19.00;;;10.02;;
45760;SDS011;31471;51.040;14.414;2022-10-31T05:41:04;18.02;;;9.77;;
45760;SDS011;31471;51.040;14.414;2022-10-31T05:43:31;27.10;;;13.95;;
45760;SDS011;31471;51.040;14.414;2022-10-31T05:45:58;49.63;;;28.23;;
45760;SDS011;31471;51.040;14.414;2022-10-31T05:48:55;26.33;;;14.95;;
45760;SDS011;31471;51.040;14.414;2022-10-31T05:51:41;25.42;;;14.05;;
45760;SDS011;31471;51.040;14.414;2022-10-31T05:56:33;31.38;;;15.85;;
45760;SDS011;31471;51.040;14.414;2022-10-31T05:58:59;21.17;;;12.70;;
45760;SDS011;31471;51.040;14.414;2022-10-31T06:01:25;24.23;;;13.27;;
45760;SDS011;31471;51.040;14.414;2022-10-31T06:03:51;21.75;;;12.20;;
45760;SDS011;31471;51.040;14.414;2022-10-31T06:06:18;24.52;;;12.05;;
45760;SDS011;31471;51.040;14.414;2022-10-31T06:08:44;25.75;;;16.02;;
45760;SDS011;31471;51.040;14.414;2022-10-31T06:11:16;28.98;;;13.80;;
45760;SDS011;31471;51.040;14.414;2022-10-31T06:14:00;23.17;;;13.07;;
45760;SDS011;31471;51.040;14.414;2022-10-31T06:16:33;17.60;;;12.02;;
45760;SDS011;31471;51.040;14.414;2022-10-31T06:19:15;20.95;;;11.15;;
45760;SDS011;31471;51.040;14.414;2022-10-31T06:21:41;21.55;;;12.25;;
45760;SDS011;31471;51.040;14.414;2022-10-31T06:24:07;22.83;;;11.98;;
45760;SDS011;31471;51.040;14.414;2022-10-31T06:26:51;21.67;;;11.60;;
45760;SDS011;31471;51.040;14.414;2022-10-31T06:29:17;20.65;;;11.80;;
45760;SDS011;31471;51.040;14.414;2022-10-31T06:31:58;28.17;;;15.57;;
45760;SDS011;31471;51.040;14.414;2022-10-31T06:34:23;31.52;;;16.20;;
45760;SDS011;31471;51.040;14.414;2022-10-31T06:36:49;25.27;;;15.63;;
45760;SDS011;31471;51.040;14.414;2022-10-31T06:39:17;26.20;;;14.70;;
45760;SDS011;31471;51.040;14.414;2022-10-31T06:41:43;25.52;;;14.00;;
45760;SDS011;31471;51.040;14.414;2022-10-31T06:44:11;23.73;;;13.18;;
45760;SDS011;31471;51.040;14.414;2022-10-31T06:46:57;25.60;;;14.80;;
45760;SDS011;31471;51.040;14.414;2022-10-31T06:49:50;23.85;;;13.35;;
45760;SDS011;31471;51.040;14.414;2022-10-31T06:52:19;23.40;;;12.63;;
45760;SDS011;31471;51.040;14.414;2022-10-31T06:54:45;23.70;;;13.93;;
45760;SDS011;31471;51.040;14.414;2022-10-31T06:57:12;21.65;;;12.50;;
45760;SDS011;31471;51.040;14.414;2022-10-31T06:59:38;24.33;;;13.48;;
45760;SDS011;31471;51.040;14.414;2022-10-31T07:02:33;23.10;;;14.00;;
45760;SDS011;31471;51.040;14.414;2022-10-31T07:04:59;23.48;;;12.52;;
45760;SDS011;31471;51.040;14.414;2022-10-31T07:07:25;24.40;;;13.32;;
45760;SDS011;31471;51.040;14.414;2022-10-31T07:09:50;23.05;;;11.95;;
45760;SDS011;31471;51.040;14.414;2022-10-31T07:12:20;25.20;;;12.10;;
45760;SDS011;31471;51.040;14.414;2022-10-31T07:14:54;21.15;;;12.15;;
45760;SDS011;31471;51.040;14.414;2022-10-31T07:17:22;22.42;;;11.85;;
45760;SDS011;31471;51.040;14.414;2022-10-31T07:19:52;21.58;;;12.75;;
45760;SDS011;31471;51.040;14.414;2022-10-31T07:22:18;23.83;;;13.35;;
45760;SDS011;31471;51.040;14.414;2022-10-31T07:24:44;22.73;;;13.30;;
45760;SDS011;31471;51.040;14.414;2022-10-31T07:27:27;20.10;;;12.00;;
45760;SDS011;31471;51.040;14.414;2022-10-31T07:29:53;26.45;;;13.18;;
45760;SDS011;31471;51.040;14.414;2022-10-31T07:32:19;23.25;;;12.13;;
45760;SDS011;31471;51.040;14.414;2022-10-31T07:34:51;19.50;;;11.50;;
45760;SDS011;31471;51.040;14.414;2022-10-31T07:37:21;23.55;;;13.18;;
45760;SDS011;31471;51.040;14.414;2022-10-31T07:39:47;27.15;;;14.57;;
45760;SDS011;31471;51.040;14.414;2022-10-31T07:42:12;27.33;;;16.67;;
45760;SDS011;31471;51.040;14.414;2022-10-31T07:44:42;30.25;;;18.13;;
45760;SDS011;31471;51.040;14.414;2022-10-31T07:47:26;30.42;;;17.58;;
45760;SDS011;31471;51.040;14.414;2022-10-31T07:53:07;25.35;;;16.60;;
45760;SDS011;31471;51.040;14.414;2022-10-31T07:55:37;33.15;;;17.00;;
45760;SDS011;31471;51.040;14.414;2022-10-31T07:58:06;27.50;;;16.45;;
45760;SDS011;31471;51.040;14.414;2022-10-31T08:00:37;23.52;;;13.25;;
45760;SDS011;31471;51.040;14.414;2022-10-31T08:03:07;23.00;;;13.70;;
45760;SDS011;31471;51.040;14.414;2022-10-31T08:05:53;22.63;;;13.32;;
45760;SDS011;31471;51.040;14.414;2022-10-31T08:08:27;19.48;;;12.77;;
45760;SDS011;31471;51.040;14.414;2022-10-31T08:10:54;19.77;;;13.07;;
45760;SDS011;31471;51.040;14.414;2022-10-31T08:13:20;26.90;;;13.13;;
45760;SDS011;31471;51.040;14.414;2022-10-31T08:15:49;26.73;;;16.10;;
45760;SDS011;31471;51.040;14.414;2022-10-31T08:18:19;24.13;;;16.25;;
45760;SDS011;31471;51.040;14.414;2022-10-31T08:20:47;22.40;;;14.80;;
45760;SDS011;31471;51.040;14.414;2022-10-31T08:23:12;23.67;;;15.52;;
45760;SDS011;31471;51.040;14.414;2022-10-31T08:25:40;22.63;;;15.13;;
45760;SDS011;31471;51.040;14.414;2022-10-31T08:28:08;22.85;;;15.57;;
45760;SDS011;31471;51.040;14.414;2022-10-31T08:30:37;23.98;;;15.23;;
45760;SDS011;31471;51.040;14.414;2022-10-31T08:33:22;22.08;;;14.18;;
45760;SDS011;31471;51.040;14.414;2022-10-31T08:36:20;22.42;;;13.90;;
45760;SDS011;31471;51.040;14.414;2022-10-31T08:39:04;23.75;;;14.55;;
45760;SDS011;31471;51.040;14.414;2022-10-31T08:41:30;22.58;;;13.82;;
45760;SDS011;31471;51.040;14.414;2022-10-31T08:43:57;17.48;;;11.75;;
45760;SDS011;31471;51.040;14.414;2022-10-31T08:46:23;20.65;;;12.50;;
45760;SDS011;31471;51.040;14.414;2022-10-31T08:48:49;20.05;;;13.65;;
45760;SDS011;31471;51.040;14.414;2022-10-31T08:51:16;22.00;;;12.60;;
45760;SDS011;31471;51.040;14.414;2022-10-31T08:53:41;24.08;;;11.73;;
45760;SDS011;31471;51.040;14.414;2022-10-31T08:56:36;18.27;;;11.93;;
45760;SDS011;31471;51.040;14.414;2022-10-31T08:59:07;25.38;;;11.82;;
45760;SDS011;31471;51.040;14.414;2022-10-31T09:01:53;21.92;;;12.00;;
45760;SDS011;31471;51.040;14.414;2022-10-31T09:04:19;21.92;;;12.93;;
45760;SDS011;31471;51.040;14.414;2022-10-31T09:06:44;21.02;;;13.20;;
45760;SDS011;31471;51.040;14.414;2022-10-31T09:09:10;18.27;;;9.93;;
45760;SDS011;31471;51.040;14.414;2022-10-31T09:11:36;18.60;;;11.65;;
45760;SDS011;31471;51.040;14.414;2022-10-31T09:14:20;17.80;;;10.13;;
45760;SDS011;31471;51.040;14.414;2022-10-31T09:17:04;21.85;;;10.43;;
45760;SDS011;31471;51.040;14.414;2022-10-31T09:19:47;15.48;;;9.13;;
45760;SDS011;31471;51.040;14.414;2022-10-31T09:22:13;17.20;;;9.02;;
45760;SDS011;31471;51.040;14.414;2022-10-31T09:24:39;16.23;;;8.23;;
45760;SDS011;31471;51.040;14.414;2022-10-31T09:27:04;13.57;;;7.65;;
45760;SDS011;31471;51.040;14.414;2022-10-31T09:29:30;13.40;;;6.95;;
45760;SDS011;31471;51.040;14.414;2022-10-31T09:31:58;13.25;;;6.75;;
45760;SDS011;31471;51.040;14.414;2022-10-31T09:34:26;11.18;;;6.45;;
45760;SDS011;31471;51.040;14.414;2022-10-31T09:37:01;10.60;;;4.90;;
45760;SDS011;31471;51.040;14.414;2022-10-31T09:39:27;6.95;;;3.92;;
45760;SDS011;31471;51.040;14.414;2022-10-31T09:44:56;7.78;;;4.45;;
45760;SDS011;31471;51.040;14.414;2022-10-31T09:47:53;8.48;;;3.58;;
45760;SDS011;31471;51.040;14.414;2022-10-31T09:50:36;6.75;;;3.53;;
45760;SDS011;31471;51.040;14.414;2022-10-31T09:53:29;6.78;;;3.70;;
45760;SDS011;31471;51.040;14.414;2022-10-31T09:56:07;7.53;;;4.15;;
45760;SDS011;31471;51.040;14.414;2022-10-31T09:58:39;10.27;;;4.38;;
45760;SDS011;31471;51.040;14.414;2022-10-31T10:01:11;7.45;;;3.45;;
45760;SDS011;31471;51.040;14.414;2022-10-31T10:04:02;8.45;;;4.72;;
45760;SDS011;31471;51.040;14.414;2022-10-31T10:06:58;7.35;;;4.05;;
45760;SDS011;31471;51.040;14.414;2022-10-31T10:09:42;7.15;;;4.70;;
45760;SDS011;31471;51.040;14.414;2022-10-31T10:12:35;6.85;;;4.60;;
45760;SDS011;31471;51.040;14.414;2022-10-31T10:15:24;8.25;;;4.13;;
45760;SDS011;31471;51.040;14.414;2022-10-31T10:20:29;11.63;;;4.35;;
45760;SDS011;31471;51.040;14.414;2022-10-31T10:23:07;9.10;;;5.45;;
45760;SDS011;31471;51.040;14.414;2022-10-31T10:26:17;14.40;;;5.03;;
45760;SDS011;31471;51.040;14.414;2022-10-31T10:28:51;8.00;;;4.38;;
45760;SDS011;31471;51.040;14.414;2022-10-31T10:33:59;11.60;;;4.97;;
45760;SDS011;31471;51.040;14.414;2022-10-31T10:39:03;9.93;;;5.10;;
45760;SDS011;31471;51.040;14.414;2022-10-31T10:41:35;10.43;;;4.88;;
45760;SDS011;31471;51.040;14.414;2022-10-31T10:44:04;7.45;;;4.50;;
45760;SDS011;31471;51.040;14.414;2022-10-31T10:46:43;8.80;;;4.97;;
45760;SDS011;31471;51.040;14.414;2022-10-31T10:49:38;9.55;;;4.72;;
45760;SDS011;31471;51.040;14.414;2022-10-31T11:00:23;9.88;;;4.88;;
45760;SDS011;31471;51.040;14.414;2022-10-31T11:02:54;10.40;;;4.65;;
45760;SDS011;31471;51.040;14.414;2022-10-31T11:07:58;9.82;;;4.53;;
45760;SDS011;31471;51.040;14.414;2022-10-31T11:10:23;6.55;;;4.15;;
45760;SDS011;31471;51.040;14.414;2022-10-31T11:15:36;12.82;;;5.30;;
45760;SDS011;31471;51.040;14.414;2022-10-31T11:18:04;10.52;;;5.35;;
45760;SDS011;31471;51.040;14.414;2022-10-31T11:23:02;8.95;;;5.32;;
45760;SDS011;31471;51.040;14.414;2022-10-31T11:25:30;7.25;;;5.20;;
45760;SDS011;31471;51.040;14.414;2022-10-31T11:30:25;6.38;;;4.18;;
45760;SDS011;31471;51.040;14.414;2022-10-31T11:35:17;8.67;;;4.20;;
45760;SDS011;31471;51.040;14.414;2022-10-31T11:37:45;9.10;;;4.47;;
45760;SDS011;31471;51.040;14.414;2022-10-31T11:40:17;7.65;;;4.18;;
45760;SDS011;31471;51.040;14.414;2022-10-31T11:42:51;10.57;;;4.22;;
45760;SDS011;31471;51.040;14.414;2022-10-31T11:45:29;9.55;;;4.80;;
45760;SDS011;31471;51.040;14.414;2022-10-31T11:50:25;7.97;;;4.35;;
45760;SDS011;31471;51.040;14.414;2022-10-31T11:53:01;8.00;;;4.30;;
45760;SDS011;31471;51.040;14.414;2022-10-31T11:55:33;12.30;;;4.88;;
45760;SDS011;31471;51.040;14.414;2022-10-31T11:58:00;9.43;;;4.07;;
45760;SDS011;31471;51.040;14.414;2022-10-31T12:00:30;9.45;;;4.45;;
45760;SDS011;31471;51.040;14.414;2022-10-31T12:05:47;9.10;;;4.50;;
45760;SDS011;31471;51.040;14.414;2022-10-31T12:08:20;9.85;;;4.75;;
45760;SDS011;31471;51.040;14.414;2022-10-31T12:13:33;8.63;;;4.32;;
45760;SDS011;31471;51.040;14.414;2022-10-31T12:16:10;8.65;;;4.85;;
45760;SDS011;31471;51.040;14.414;2022-10-31T12:18:51;8.20;;;4.30;;
45760;SDS011;31471;51.040;14.414;2022-10-31T12:21:32;6.93;;;3.55;;
45760;SDS011;31471;51.040;14.414;2022-10-31T12:24:06;6.65;;;3.92;;
45760;SDS011;31471;51.040;14.414;2022-10-31T12:35:33;6.70;;;3.78;;
45760;SDS011;31471;51.040;14.414;2022-10-31T12:49:27;6.72;;;4.07;;
45760;SDS011;31471;51.040;14.414;2022-10-31T13:05:46;8.85;;;3.95;;
45760;SDS011;31471;51.040;14.414;2022-10-31T13:08:21;9.45;;;4.13;;
45760;SDS011;31471;51.040;14.414;2022-10-31T13:11:10;9.88;;;4.15;;
45760;SDS011;31471;51.040;14.414;2022-10-31T13:16:11;7.00;;;4.00;;
45760;SDS011;31471;51.040;14.414;2022-10-31T13:18:46;10.05;;;4.40;;
45760;SDS011;31471;51.040;14.414;2022-10-31T13:21:27;6.70;;;4.00;;
45760;SDS011;31471;51.040;14.414;2022-10-31T13:24:10;7.78;;;3.75;;
45760;SDS011;31471;51.040;14.414;2022-10-31T13:26:52;8.73;;;4.32;;
45760;SDS011;31471;51.040;14.414;2022-10-31T13:29:21;6.18;;;3.38;;
45760;SDS011;31471;51.040;14.414;2022-10-31T13:31:51;10.35;;;3.97;;
45760;SDS011;31471;51.040;14.414;2022-10-31T13:37:12;12.80;;;4.75;;
45760;SDS011;31471;51.040;14.414;2022-10-31T13:39:58;8.23;;;3.65;;
45760;SDS011;31471;51.040;14.414;2022-10-31T13:45:24;10.00;;;6.60;;
45760;SDS011;31471;51.040;14.414;2022-10-31T13:47:57;9.48;;;6.10;;
45760;SDS011;31471;51.040;14.414;2022-10-31T13:50:30;10.25;;;5.40;;
45760;SDS011;31471;51.040;14.414;2022-10-31T13:53:09;8.20;;;5.88;;
45760;SDS011;31471;51.040;14.414;2022-10-31T13:55:42;10.98;;;4.90;;
45760;SDS011;31471;51.040;14.414;2022-10-31T14:00:57;10.27;;;5.03;;
45760;SDS011;31471;51.040;14.414;2022-10-31T14:03:35;6.78;;;4.50;;
45760;SDS011;31471;51.040;14.414;2022-10-31T14:06:02;7.40;;;4.28;;
45760;SDS011;31471;51.040;14.414;2022-10-31T14:08:29;8.63;;;4.32;;
45760;SDS011;31471;51.040;14.414;2022-10-31T14:10:59;9.57;;;5.60;;
45760;SDS011;31471;51.040;14.414;2022-10-31T14:16:02;10.55;;;4.88;;
45760;SDS011;31471;51.040;14.414;2022-10-31T14:20:58;14.02;;;4.93;;
45760;SDS011;31471;51.040;14.414;2022-10-31T14:28:44;9.57;;;6.63;;
45760;SDS011;31471;51.040;14.414;2022-10-31T14:34:01;10.60;;;6.18;;
45760;SDS011;31471;51.040;14.414;2022-10-31T14:36:50;10.88;;;5.10;;
45760;SDS011;31471;51.040;14.414;2022-10-31T14:42:18;9.55;;;4.78;;
45760;SDS011;31471;51.040;14.414;2022-10-31T14:53:14;12.63;;;6.68;;
45760;SDS011;31471;51.040;14.414;2022-10-31T14:55:51;13.20;;;7.10;;
45760;SDS011;31471;51.040;14.414;2022-10-31T14:58:20;15.65;;;6.15;;
45760;SDS011;31471;51.040;14.414;2022-10-31T15:00:50;9.07;;;6.00;;
45760;SDS011;31471;51.040;14.414;2022-10-31T15:03:22;10.18;;;6.50;;
45760;SDS011;31471;51.040;14.414;2022-10-31T15:06:04;13.27;;;5.97;;
45760;SDS011;31471;51.040;14.414;2022-10-31T15:08:39;8.20;;;5.77;;
45760;SDS011;31471;51.040;14.414;2022-10-31T15:11:19;12.50;;;6.35;;
45760;SDS011;31471;51.040;14.414;2022-10-31T15:13:50;10.38;;;5.60;;
45760;SDS011;31471;51.040;14.414;2022-10-31T15:16:21;10.20;;;5.57;;
45760;SDS011;31471;51.040;14.414;2022-10-31T15:18:53;9.43;;;6.63;;
45760;SDS011;31471;51.040;14.414;2022-10-31T15:21:21;11.95;;;6.45;;
45760;SDS011;31471;51.040;14.414;2022-10-31T15:23:49;11.48;;;5.78;;
45760;SDS011;31471;51.040;14.414;2022-10-31T15:26:18;10.55;;;5.65;;
45760;SDS011;31471;51.040;14.414;2022-10-31T15:28:45;9.77;;;6.78;;
45760;SDS011;31471;51.040;14.414;2022-10-31T15:31:22;9.18;;;6.45;;
45760;SDS011;31471;51.040;14.414;2022-10-31T15:36:20;24.63;;;13.15;;
45760;SDS011;31471;51.040;14.414;2022-10-31T15:38:48;26.02;;;14.73;;
45760;SDS011;31471;51.040;14.414;2022-10-31T15:41:28;22.23;;;13.43;;
45760;SDS011;31471;51.040;14.414;2022-10-31T15:44:15;16.38;;;10.35;;
45760;SDS011;31471;51.040;14.414;2022-10-31T15:47:18;18.25;;;9.93;;
45760;SDS011;31471;51.040;14.414;2022-10-31T15:49:56;16.95;;;8.00;;
45760;SDS011;31471;51.040;14.414;2022-10-31T15:52:36;17.63;;;10.13;;
45760;SDS011;31471;51.040;14.414;2022-10-31T15:55:15;18.80;;;9.77;;
45760;SDS011;31471;51.040;14.414;2022-10-31T15:57:45;18.25;;;9.93;;
45760;SDS011;31471;51.040;14.414;2022-10-31T16:00:33;16.42;;;8.40;;
45760;SDS011;31471;51.040;14.414;2022-10-31T16:05:45;20.95;;;12.23;;
45760;SDS011;31471;51.040;14.414;2022-10-31T16:10:53;25.25;;;15.02;;
45760;SDS011;31471;51.040;14.414;2022-10-31T16:13:31;36.80;;;18.63;;
45760;SDS011;31471;51.040;14.414;2022-10-31T16:16:03;41.05;;;23.42;;
45760;SDS011;31471;51.040;14.414;2022-10-31T16:18:36;35.58;;;20.08;;
45760;SDS011;31471;51.040;14.414;2022-10-31T16:21:04;29.70;;;17.35;;
45760;SDS011;31471;51.040;14.414;2022-10-31T16:23:31;21.75;;;12.88;;
45760;SDS011;31471;51.040;14.414;2022-10-31T16:25:57;18.27;;;12.30;;
45760;SDS011;31471;51.040;14.414;2022-10-31T16:28:24;22.45;;;14.55;;
45760;SDS011;31471;51.040;14.414;2022-10-31T16:30:51;22.17;;;13.77;;
45760;SDS011;31471;51.040;14.414;2022-10-31T16:33:29;21.92;;;13.95;;
45760;SDS011;31471;51.040;14.414;2022-10-31T16:35:56;22.40;;;15.25;;
45760;SDS011;31471;51.040;14.414;2022-10-31T16:38:23;20.48;;;15.65;;
45760;SDS011;31471;51.040;14.414;2022-10-31T16:40:49;21.98;;;14.48;;
45760;SDS011;31471;51.040;14.414;2022-10-31T16:43:16;20.30;;;13.30;;
45760;SDS011;31471;51.040;14.414;2022-10-31T16:45:44;18.30;;;13.52;;
45760;SDS011;31471;51.040;14.414;2022-10-31T16:48:12;22.83;;;15.20;;
45760;SDS011;31471;51.040;14.414;2022-10-31T16:50:47;17.13;;;12.52;;
45760;SDS011;31471;51.040;14.414;2022-10-31T16:53:14;18.23;;;12.05;;
45760;SDS011;31471;51.040;14.414;2022-10-31T16:55:41;18.13;;;10.82;;
45760;SDS011;31471;51.040;14.414;2022-10-31T16:58:09;15.30;;;10.57;;
45760;SDS011;31471;51.040;14.414;2022-10-31T17:00:40;18.27;;;11.10;;
45760;SDS011;31471;51.040;14.414;2022-10-31T17:03:07;19.52;;;10.02;;
45760;SDS011;31471;51.040;14.414;2022-10-31T17:05:33;17.70;;;10.65;;
45760;SDS011;31471;51.040;14.414;2022-10-31T17:07:59;19.40;;;11.63;;
45760;SDS011;31471;51.040;14.414;2022-10-31T17:10:25;19.65;;;11.95;;
45760;SDS011;31471;51.040;14.414;2022-10-31T17:12:51;16.98;;;12.80;;
45760;SDS011;31471;51.040;14.414;2022-10-31T17:15:25;21.48;;;12.95;;
45760;SDS011;31471;51.040;14.414;2022-10-31T17:17:52;25.30;;;12.27;;